Time;durP1;ratioP1;P1;durP2;ratioP2;P2;SDS_P1;SDS_P2;PMS_P1;PMS_P2;Temp;Humidity;BMP_temperature;BMP_pressure;BME280_temperature;BME280_humidity;BME280_pressure;Samples;Min_cycle;Max_cycle;Signal;HPM_P1;HPM_P2
2022/01/16 00:04:08;;;;;;;20.70;14.10;;;3.60;99.90;;;;;;5114147;28;20054;-69
2022/01/16 00:06:39;;;;;;;25.27;16.33;;;3.50;99.90;;;;;;5112374;28;20345;-65
2022/01/16 00:09:05;;;;;;;24.52;16.13;;;3.30;99.90;;;;;;5112684;28;20020;-64
2022/01/16 00:11:32;;;;;;;21.42;15.07;;;3.10;99.90;;;;;;5113361;28;20074;-66
2022/01/16 00:13:57;;;;;;;23.73;16.30;;;3.20;99.90;;;;;;5112408;28;20051;-65
2022/01/16 00:16:23;;;;;;;29.95;18.02;;;3.40;99.90;;;;;;5113342;28;20051;-64
2022/01/16 00:18:49;;;;;;;27.38;17.60;;;3.50;99.90;;;;;;5112722;28;20031;-66
2022/01/16 00:21:23;;;;;;;27.42;18.55;;;3.50;99.90;;;;;;5113383;28;20019;-65
2022/01/16 00:23:50;;;;;;;27.17;18.40;;;3.50;99.90;;;;;;5112281;28;20544;-65
2022/01/16 00:26:16;;;;;;;27.60;18.63;;;3.50;99.90;;;;;;5112800;28;20020;-66
2022/01/16 00:28:42;;;;;;;28.13;18.10;;;3.50;99.90;;;;;;5113350;28;20016;-67
2022/01/16 00:31:08;;;;;;;29.67;18.67;;;3.40;99.90;;;;;;5113715;28;20046;-65
2022/01/16 00:33:38;;;;;;;28.50;19.23;;;3.30;99.90;;;;;;5112911;28;20032;-65
2022/01/16 00:36:08;;;;;;;30.30;18.98;;;3.10;99.90;;;;;;5112949;28;20019;-65
2022/01/16 00:38:34;;;;;;;31.10;19.40;;;3.10;99.90;;;;;;5113225;28;20020;-74
2022/01/16 00:41:00;;;;;;;44.58;19.55;;;3.20;99.90;;;;;;5112352;28;20023;-65
2022/01/16 00:43:26;;;;;;;34.72;21.23;;;3.20;99.90;;;;;;5111567;28;20036;-66
2022/01/16 00:45:52;;;;;;;32.13;19.80;;;3.40;99.90;;;;;;5113524;28;20027;-66
2022/01/16 00:48:18;;;;;;;29.52;17.92;;;3.30;99.90;;;;;;5112796;28;20019;-67
2022/01/16 00:50:43;;;;;;;28.45;18.30;;;3.40;99.90;;;;;;5113423;28;20011;-67
2022/01/16 00:53:09;;;;;;;30.15;18.58;;;3.40;99.90;;;;;;5114404;28;20082;-67
2022/01/16 00:55:37;;;;;;;34.92;18.95;;;3.40;99.90;;;;;;5117054;28;20509;-65
2022/01/16 00:58:02;;;;;;;32.30;19.42;;;3.40;99.90;;;;;;5117611;28;20015;-65
2022/01/16 01:00:31;;;;;;;31.48;18.40;;;3.30;99.90;;;;;;5115433;28;20023;-64
2022/01/16 01:02:57;;;;;;;32.00;20.02;;;3.40;99.90;;;;;;5117500;28;20028;-68
2022/01/16 01:05:22;;;;;;;36.25;20.45;;;3.40;99.90;;;;;;5116636;28;20024;-65
2022/01/16 01:07:48;;;;;;;35.50;19.95;;;3.20;99.90;;;;;;5117266;28;20015;-71
2022/01/16 01:10:14;;;;;;;35.58;19.50;;;3.00;99.90;;;;;;5115816;28;20016;-65
2022/01/16 01:12:56;;;;;;;35.88;20.85;;;3.00;99.90;;;;;;5115241;28;20028;-64
2022/01/16 01:15:29;;;;;;;34.67;20.02;;;3.00;99.90;;;;;;5116292;28;20020;-65
2022/01/16 01:17:56;;;;;;;31.52;16.92;;;3.00;99.90;;;;;;5117260;28;20035;-64
2022/01/16 01:20:23;;;;;;;35.72;19.40;;;2.90;99.90;;;;;;5116397;28;20454;-66
2022/01/16 01:22:51;;;;;;;27.60;15.98;;;3.00;99.90;;;;;;5115276;28;20043;-64
2022/01/16 01:25:18;;;;;;;28.98;17.73;;;3.20;99.90;;;;;;5115932;28;20388;-65
2022/01/16 01:27:45;;;;;;;30.15;16.55;;;3.30;99.90;;;;;;5117641;27;20162;-64
2022/01/16 01:30:13;;;;;;;33.00;19.23;;;3.30;99.90;;;;;;5115500;28;20019;-64
2022/01/16 01:32:40;;;;;;;34.67;17.60;;;3.30;99.90;;;;;;5116103;28;20046;-65
2022/01/16 01:35:08;;;;;;;33.42;19.23;;;3.10;99.90;;;;;;5116567;28;20019;-67
2022/01/16 01:37:35;;;;;;;32.40;18.45;;;3.10;99.90;;;;;;5114587;28;20501;-66
2022/01/16 01:40:03;;;;;;;32.67;18.73;;;3.30;99.90;;;;;;5116229;28;20103;-66
2022/01/16 01:42:32;;;;;;;31.80;15.43;;;3.40;99.90;;;;;;5114594;28;20028;-64
2022/01/16 01:53:15;;;;;;;27.55;15.18;;;3.10;99.90;;;;;;5116816;28;20043;-64
2022/01/16 01:55:43;;;;;;;25.73;13.82;;;3.10;99.90;;;;;;5116261;28;20023;-63
2022/01/16 01:58:09;;;;;;;28.92;15.13;;;2.90;99.90;;;;;;5115822;28;20337;-65
2022/01/16 02:00:35;;;;;;;27.50;14.13;;;2.80;99.90;;;;;;5116319;28;20019;-65
2022/01/16 02:05:45;;;;;;;22.63;13.68;;;2.90;99.90;;;;;;5117002;28;20042;-65
2022/01/16 02:08:11;;;;;;;22.48;12.07;;;3.00;99.90;;;;;;5116316;28;20023;-65
2022/01/16 02:10:38;;;;;;;19.33;11.38;;;3.00;99.90;;;;;;5116539;28;20027;-67
2022/01/16 02:13:07;;;;;;;18.60;11.23;;;3.00;99.90;;;;;;5117844;28;20024;-65
2022/01/16 02:31:46;;;;;;;26.42;13.57;;;2.80;99.90;;;;;;5117932;27;20023;-64
2022/01/16 02:37:00;;;;;;;28.98;14.85;;;2.70;99.90;;;;;;5117231;28;20468;-64
2022/01/16 02:39:30;;;;;;;33.85;16.77;;;2.70;99.90;;;;;;5114901;28;20085;-64
2022/01/16 02:41:58;;;;;;;33.15;17.55;;;2.70;99.90;;;;;;5116290;28;20023;-69
2022/01/16 02:46:52;;;;;;;34.03;18.70;;;2.70;99.90;;;;;;5116642;28;20026;-68
2022/01/16 02:49:24;;;;;;;35.42;18.80;;;2.60;99.90;;;;;;5115625;28;20016;-65
2022/01/16 02:51:55;;;;;;;;;;;2.50;99.90;;;;;;5117360;28;20027;-65
2022/01/16 02:54:21;;;;;;;40.17;20.08;;;2.60;99.90;;;;;;5115840;28;19923;-69
2022/01/16 02:56:48;;;;;;;40.38;18.85;;;2.40;99.90;;;;;;5115168;28;20069;-65
2022/01/16 02:59:14;;;;;;;39.60;19.13;;;2.60;99.90;;;;;;5114314;28;20027;-64
2022/01/16 03:01:40;;;;;;;40.15;19.35;;;2.50;99.90;;;;;;5114355;28;20509;-64
2022/01/16 03:04:07;;;;;;;39.90;20.02;;;2.60;99.90;;;;;;5114378;28;20035;-64
2022/01/16 03:06:33;;;;;;;41.20;18.48;;;2.70;99.90;;;;;;5114984;28;20031;-66
2022/01/16 03:08:59;;;;;;;41.45;19.45;;;2.70;99.90;;;;;;5127758;27;20030;-65
2022/01/16 03:11:34;;;;;;;45.92;20.30;;;2.40;99.90;;;;;;5116273;27;20030;-71
2022/01/16 03:14:01;;;;;;;40.83;19.33;;;2.50;99.90;;;;;;5116866;28;20019;-67
2022/01/16 03:16:26;;;;;;;54.38;22.58;;;2.60;99.90;;;;;;5114342;28;20027;-65
2022/01/16 03:21:55;;;;;;;44.53;19.45;;;2.70;99.90;;;;;;5115506;28;20034;-65
2022/01/16 03:24:32;;;;;;;49.08;22.38;;;2.80;99.90;;;;;;5114502;28;20044;-64
2022/01/16 03:27:00;;;;;;;43.72;20.67;;;2.80;99.90;;;;;;5116734;28;20023;-64
2022/01/16 03:29:28;;;;;;;43.92;21.02;;;2.80;99.90;;;;;;5115315;28;20100;-64
2022/01/16 03:31:55;;;;;;;43.30;20.50;;;2.80;99.90;;;;;;5116060;28;20015;-65
2022/01/16 03:34:21;;;;;;;53.70;19.70;;;2.90;99.90;;;;;;5115085;28;20023;-64
2022/01/16 03:36:47;;;;;;;47.75;20.73;;;2.80;99.90;;;;;;5115811;28;20035;-69
2022/01/16 03:39:13;;;;;;;44.72;19.40;;;2.70;99.90;;;;;;5116997;28;20068;-65
2022/01/16 03:41:39;;;;;;;50.67;19.98;;;2.80;99.90;;;;;;5115885;28;20369;-65
2022/01/16 03:44:06;;;;;;;42.47;20.05;;;2.70;99.90;;;;;;5114814;28;20023;-65
2022/01/16 03:46:35;;;;;;;49.42;20.50;;;2.50;99.90;;;;;;5114497;28;20052;-65
2022/01/16 03:49:11;;;;;;;47.45;22.27;;;2.60;99.90;;;;;;5114462;28;20106;-65
2022/01/16 03:51:39;;;;;;;43.38;19.45;;;2.60;99.90;;;;;;5113905;28;20030;-64
2022/01/16 03:54:06;;;;;;;45.03;18.95;;;2.50;99.90;;;;;;5114199;28;20070;-64
2022/01/16 03:56:32;;;;;;;47.13;20.77;;;2.50;99.90;;;;;;5114254;28;20051;-64
2022/01/16 03:58:58;;;;;;;50.53;22.20;;;2.50;99.90;;;;;;5114793;28;20043;-64
2022/01/16 04:01:24;;;;;;;51.15;22.10;;;2.50;99.90;;;;;;5113736;28;20045;-64
2022/01/16 04:03:51;;;;;;;51.35;23.55;;;2.40;99.90;;;;;;5113288;28;20028;-66
2022/01/16 04:06:19;;;;;;;53.75;22.60;;;2.40;99.90;;;;;;5114966;28;20020;-65
2022/01/16 04:08:46;;;;;;;51.28;21.60;;;2.50;99.90;;;;;;5114593;28;20016;-68
2022/01/16 04:11:11;;;;;;;57.53;23.80;;;2.40;99.90;;;;;;5114521;28;20019;-65
2022/01/16 04:13:43;;;;;;;45.85;22.85;;;2.50;99.90;;;;;;5113405;28;20058;-65
2022/01/16 04:16:09;;;;;;;;;;;2.60;99.90;;;;;;5113307;28;20024;-65
2022/01/16 04:18:34;;;;;;;49.85;21.75;;;2.60;99.90;;;;;;5112898;28;19900;-65
2022/01/16 04:21:00;;;;;;;50.20;23.45;;;2.60;99.90;;;;;;5113749;28;20023;-64
2022/01/16 04:23:27;;;;;;;52.30;23.48;;;2.70;99.90;;;;;;5113736;28;20138;-65
2022/01/16 04:25:52;;;;;;;47.90;21.63;;;2.80;99.90;;;;;;5111603;28;20020;-65
2022/01/16 04:28:23;;;;;;;45.17;20.65;;;2.90;99.90;;;;;;5112917;28;20019;-65
2022/01/16 04:30:48;;;;;;;44.15;20.85;;;2.90;99.90;;;;;;5111829;28;20710;-65
2022/01/16 04:33:14;;;;;;;43.63;23.10;;;2.90;99.90;;;;;;5113534;28;20031;-65
2022/01/16 04:35:40;;;;;;;38.42;19.05;;;2.90;99.90;;;;;;5111694;28;20024;-65
2022/01/16 04:38:08;;;;;;;39.85;19.60;;;2.80;99.90;;;;;;5113646;28;20031;-66
2022/01/16 04:40:42;;;;;;;38.25;18.10;;;2.70;99.90;;;;;;5112846;28;20020;-66
2022/01/16 04:45:56;;;;;;;27.75;14.60;;;2.80;99.90;;;;;;5113591;28;20031;-64
2022/01/16 04:48:22;;;;;;;27.73;14.23;;;2.80;99.90;;;;;;5113579;28;20015;-66
2022/01/16 04:50:47;;;;;;;30.40;14.35;;;2.70;99.90;;;;;;5112946;28;20403;-65
2022/01/16 04:53:13;;;;;;;27.45;13.75;;;2.80;99.90;;;;;;5112468;28;20461;-64
2022/01/16 04:55:39;;;;;;;34.40;16.17;;;2.70;99.90;;;;;;5113608;28;20023;-65
2022/01/16 04:58:05;;;;;;;30.15;15.30;;;2.80;99.90;;;;;;5113338;28;20364;-64
2022/01/16 05:00:31;;;;;;;29.38;15.25;;;2.80;99.90;;;;;;5111709;28;20019;-70
2022/01/16 05:02:56;;;;;;;29.85;15.38;;;2.80;99.90;;;;;;5113282;28;20028;-64
2022/01/16 05:05:22;;;;;;;29.33;16.85;;;2.70;99.90;;;;;;5111600;28;20393;-65
2022/01/16 05:07:47;;;;;;;29.75;16.58;;;2.70;99.90;;;;;;5112235;28;20024;-64
2022/01/16 05:10:13;;;;;;;31.17;16.00;;;2.80;99.90;;;;;;5112925;28;20034;-65
2022/01/16 05:12:42;;;;;;;31.10;16.27;;;2.80;99.90;;;;;;5112098;28;20027;-64
2022/01/16 05:17:52;;;;;;;32.72;16.40;;;2.50;99.90;;;;;;5112749;28;20127;-65
2022/01/16 05:20:19;;;;;;;30.60;15.88;;;2.60;99.90;;;;;;5113393;28;20055;-65
2022/01/16 05:22:45;;;;;;;27.73;15.38;;;2.70;99.90;;;;;;5112437;28;20447;-63
2022/01/16 05:25:13;;;;;;;26.73;14.93;;;2.50;99.90;;;;;;5113354;28;20059;-66
2022/01/16 05:27:39;;;;;;;31.30;15.45;;;2.50;99.90;;;;;;5112548;28;20065;-65
2022/01/16 05:30:06;;;;;;;23.63;13.90;;;2.60;99.90;;;;;;5113094;28;20454;-65
2022/01/16 05:32:32;;;;;;;27.17;13.57;;;2.60;99.90;;;;;;5112952;28;20024;-65
2022/01/16 05:34:57;;;;;;;27.92;14.57;;;2.60;99.90;;;;;;5112999;28;20122;-64
2022/01/16 05:37:23;;;;;;;24.95;13.65;;;2.60;99.90;;;;;;5111718;28;20411;-66
2022/01/16 05:39:49;;;;;;;25.20;12.85;;;2.60;99.90;;;;;;5114876;28;20031;-66
2022/01/16 05:42:15;;;;;;;24.52;13.20;;;2.60;99.90;;;;;;5117234;28;20054;-64
2022/01/16 05:44:41;;;;;;;24.38;13.05;;;2.60;99.90;;;;;;5116923;28;20031;-64
2022/01/16 05:47:10;;;;;;;25.88;13.15;;;2.60;99.90;;;;;;5116765;28;20106;-64
2022/01/16 05:49:36;;;;;;;20.75;13.02;;;2.60;99.90;;;;;;5116298;28;20023;-64
2022/01/16 05:52:02;;;;;;;25.52;14.32;;;2.60;99.90;;;;;;5115425;28;20152;-64
2022/01/16 05:54:27;;;;;;;29.25;14.93;;;2.50;99.90;;;;;;5116267;27;20118;-65
2022/01/16 05:56:53;;;;;;;21.77;12.85;;;2.50;99.90;;;;;;5114549;28;20031;-65
2022/01/16 05:59:18;;;;;;;25.73;14.32;;;2.40;99.90;;;;;;5116394;28;20030;-65
2022/01/16 06:01:44;;;;;;;24.33;13.40;;;2.40;99.90;;;;;;5116191;28;20099;-65
2022/01/16 06:04:10;;;;;;;28.15;15.45;;;2.30;99.90;;;;;;5116806;28;20032;-65
2022/01/16 06:06:35;;;;;;;29.25;15.07;;;2.40;99.90;;;;;;5116429;28;20106;-66
2022/01/16 06:09:01;;;;;;;26.75;13.85;;;2.40;99.90;;;;;;5117141;28;20456;-65
2022/01/16 06:11:27;;;;;;;24.65;13.77;;;2.50;99.90;;;;;;5117324;28;20026;-67
2022/01/16 06:13:52;;;;;;;24.70;14.00;;;2.60;99.90;;;;;;5119144;28;20035;-65
2022/01/16 06:16:18;;;;;;;24.58;13.23;;;2.50;99.90;;;;;;5116651;28;20020;-64
2022/01/16 06:18:44;;;;;;;20.50;11.68;;;2.50;99.90;;;;;;5115933;28;20023;-65
2022/01/16 06:21:09;;;;;;;22.15;11.32;;;2.50;99.90;;;;;;5116845;28;20026;-64
2022/01/16 06:23:35;;;;;;;23.70;12.48;;;2.40;99.90;;;;;;5116646;28;20131;-65
2022/01/16 06:26:01;;;;;;;23.33;11.93;;;2.50;99.90;;;;;;5116764;27;20019;-65
2022/01/16 06:28:28;;;;;;;18.23;11.73;;;2.50;99.90;;;;;;5117655;28;20437;-68
2022/01/16 06:30:54;;;;;;;18.48;10.05;;;2.50;99.90;;;;;;5115360;28;20016;-66
2022/01/16 06:33:19;;;;;;;17.52;10.70;;;2.40;99.90;;;;;;5115910;28;20027;-64
2022/01/16 06:35:45;;;;;;;15.77;9.68;;;2.40;99.90;;;;;;5116123;28;20016;-66
2022/01/16 06:38:11;;;;;;;17.52;10.60;;;2.50;99.90;;;;;;5117221;28;20094;-64
2022/01/16 06:40:37;;;;;;;18.30;10.23;;;2.50;99.90;;;;;;5114666;28;20474;-69
2022/01/16 06:43:03;;;;;;;17.90;10.15;;;2.50;99.90;;;;;;5115661;28;20023;-64
2022/01/16 06:45:28;;;;;;;17.50;9.20;;;2.60;99.90;;;;;;5118082;28;20022;-64
2022/01/16 06:47:55;;;;;;;17.20;8.68;;;2.50;99.90;;;;;;5115843;28;20076;-65
2022/01/16 06:50:21;;;;;;;15.95;9.27;;;2.50;99.90;;;;;;5116749;28;20051;-65
2022/01/16 06:52:46;;;;;;;16.73;9.48;;;2.50;99.90;;;;;;5116815;28;20092;-65
2022/01/16 06:55:12;;;;;;;16.00;9.70;;;2.50;99.90;;;;;;5116424;28;20065;-64
2022/01/16 06:57:38;;;;;;;15.55;9.70;;;2.50;99.90;;;;;;5115346;28;20019;-70
2022/01/16 07:00:09;;;;;;;18.67;9.32;;;2.50;99.90;;;;;;5115654;28;20054;-64
2022/01/16 07:02:35;;;;;;;14.55;8.98;;;2.50;99.90;;;;;;5115221;28;20462;-65
2022/01/16 07:05:02;;;;;;;14.60;9.70;;;2.50;99.90;;;;;;5114994;27;20153;-66
2022/01/16 07:07:28;;;;;;;15.27;10.00;;;2.50;99.90;;;;;;5113698;28;20051;-66
2022/01/16 07:09:54;;;;;;;15.68;9.88;;;2.60;99.90;;;;;;5113863;28;20399;-66
2022/01/16 07:12:20;;;;;;;17.48;9.77;;;2.60;99.90;;;;;;5114083;28;20491;-65
2022/01/16 07:14:47;;;;;;;17.40;10.00;;;2.60;99.90;;;;;;5112844;28;20046;-68
2022/01/16 07:17:12;;;;;;;15.25;9.63;;;2.70;99.90;;;;;;5114663;28;20023;-65
2022/01/16 07:19:39;;;;;;;17.10;9.95;;;2.80;99.90;;;;;;5114596;28;20016;-65
2022/01/16 07:22:05;;;;;;;19.38;10.55;;;2.90;99.90;;;;;;5113136;28;20377;-64
2022/01/16 07:24:31;;;;;;;16.60;9.80;;;2.80;99.90;;;;;;5114215;28;20023;-68
2022/01/16 07:27:00;;;;;;;14.40;9.63;;;2.90;99.90;;;;;;5114452;28;20349;-64
2022/01/16 07:29:27;;;;;;;13.43;8.60;;;2.80;99.90;;;;;;5113829;28;20114;-64
2022/01/16 07:31:52;;;;;;;12.82;8.38;;;2.80;99.90;;;;;;5113149;28;20024;-64
2022/01/16 07:34:18;;;;;;;12.80;8.10;;;2.90;99.90;;;;;;5113545;28;20140;-66
2022/01/16 07:36:44;;;;;;;10.50;7.22;;;2.80;99.90;;;;;;5113566;28;20064;-66
2022/01/16 07:39:09;;;;;;;14.32;7.68;;;2.80;99.90;;;;;;5114295;28;20016;-65
2022/01/16 07:41:35;;;;;;;11.70;7.30;;;2.80;99.90;;;;;;5114786;28;20095;-65
2022/01/16 07:44:01;;;;;;;12.18;7.63;;;2.90;99.90;;;;;;5112778;28;20024;-65
2022/01/16 07:46:27;;;;;;;9.02;7.03;;;2.80;99.90;;;;;;5113310;28;20072;-65
2022/01/16 07:48:53;;;;;;;10.35;6.90;;;2.80;99.90;;;;;;5114127;28;20019;-65
2022/01/16 07:51:19;;;;;;;9.70;6.93;;;2.80;99.90;;;;;;5114684;27;20038;-65
2022/01/16 07:53:45;;;;;;;11.18;7.03;;;2.80;99.90;;;;;;5112860;28;20047;-65
2022/01/16 07:56:11;;;;;;;10.80;7.43;;;2.90;99.90;;;;;;5096504;28;20023;-65
2022/01/16 07:58:37;;;;;;;10.88;7.50;;;2.80;99.90;;;;;;5113161;28;20023;-64
2022/01/16 08:01:03;;;;;;;10.82;7.65;;;2.90;99.90;;;;;;5112289;28;20020;-65
2022/01/16 08:03:29;;;;;;;9.27;6.80;;;2.90;99.90;;;;;;5111672;28;20114;-64
2022/01/16 08:05:54;;;;;;;10.52;6.82;;;2.90;99.90;;;;;;5111853;28;20114;-64
2022/01/16 08:08:20;;;;;;;14.50;7.95;;;2.80;99.90;;;;;;5112769;28;20110;-65
2022/01/16 08:10:46;;;;;;;10.90;7.65;;;2.80;99.90;;;;;;5112018;28;20399;-65
2022/01/16 08:13:11;;;;;;;11.40;6.65;;;2.80;99.90;;;;;;5112878;28;20028;-65
2022/01/16 08:15:37;;;;;;;12.82;7.88;;;2.80;99.90;;;;;;5112974;28;20110;-65
2022/01/16 08:18:03;;;;;;;14.20;8.85;;;2.80;99.90;;;;;;5113945;28;20027;-65
2022/01/16 08:20:28;;;;;;;13.95;9.05;;;2.90;99.90;;;;;;5114494;28;20019;-67
2022/01/16 08:22:54;;;;;;;16.17;9.70;;;2.80;99.90;;;;;;5113564;28;20126;-64
2022/01/16 08:25:21;;;;;;;13.80;9.32;;;2.80;99.90;;;;;;5112669;28;20031;-66
2022/01/16 08:27:47;;;;;;;15.18;9.68;;;2.80;99.90;;;;;;5111980;28;20093;-64
2022/01/16 08:30:13;;;;;;;14.68;9.85;;;2.80;99.90;;;;;;5113945;28;20394;-65
2022/01/16 08:32:39;;;;;;;15.98;9.82;;;2.80;99.90;;;;;;5113680;28;20540;-65
2022/01/16 08:35:06;;;;;;;17.60;9.65;;;2.80;99.90;;;;;;5113665;28;20468;-65
2022/01/16 08:37:32;;;;;;;17.65;10.63;;;2.80;99.90;;;;;;5112617;28;20019;-65
2022/01/16 08:39:57;;;;;;;18.58;10.93;;;2.80;99.90;;;;;;5112074;28;20030;-66
2022/01/16 08:42:23;;;;;;;17.50;10.63;;;2.90;99.90;;;;;;5113266;28;20449;-66
2022/01/16 08:44:51;;;;;;;15.23;9.70;;;2.90;99.90;;;;;;5112788;28;20019;-66
2022/01/16 08:47:17;;;;;;;20.08;10.63;;;2.90;99.90;;;;;;5112201;28;20024;-65
2022/01/16 08:49:43;;;;;;;18.65;11.60;;;2.90;99.90;;;;;;5113238;28;20023;-67
2022/01/16 08:52:09;;;;;;;19.58;11.55;;;2.90;99.90;;;;;;5112457;28;20047;-66
2022/01/16 08:54:35;;;;;;;18.13;11.48;;;2.80;99.90;;;;;;5111551;28;20036;-66
2022/01/16 08:57:02;;;;;;;19.48;11.60;;;2.90;99.90;;;;;;5112414;28;20055;-66
2022/01/16 08:59:28;;;;;;;25.95;13.20;;;2.90;99.90;;;;;;5112493;28;20429;-66
2022/01/16 09:01:54;;;;;;;20.10;12.00;;;2.80;99.90;;;;;;5111730;28;20365;-67
2022/01/16 09:04:20;;;;;;;25.05;13.65;;;2.80;99.90;;;;;;5113085;28;20023;-65
2022/01/16 09:06:46;;;;;;;27.00;13.85;;;2.70;99.90;;;;;;5112564;28;20031;-72
2022/01/16 09:09:11;;;;;;;24.80;14.27;;;2.80;99.90;;;;;;5113580;28;20027;-65
2022/01/16 09:11:37;;;;;;;23.80;13.18;;;2.70;99.90;;;;;;5112698;28;20026;-67
2022/01/16 09:14:03;;;;;;;25.52;13.48;;;2.80;99.90;;;;;;5114104;28;20111;-66
2022/01/16 09:16:30;;;;;;;24.33;14.52;;;2.90;99.90;;;;;;5117878;28;20016;-66
2022/01/16 09:18:56;;;;;;;25.75;15.35;;;3.00;99.90;;;;;;5115418;28;20023;-66
2022/01/16 09:21:22;;;;;;;26.25;14.93;;;2.80;99.90;;;;;;5117155;28;20360;-66
2022/01/16 09:23:49;;;;;;;30.40;15.73;;;2.80;99.90;;;;;;5116338;28;20093;-65
2022/01/16 09:26:15;;;;;;;22.77;13.57;;;2.80;99.90;;;;;;5121588;28;20034;-64
2022/01/16 09:28:42;;;;;;;25.95;14.65;;;2.80;99.90;;;;;;5119522;28;20104;-65
2022/01/16 09:31:09;;;;;;;28.98;15.18;;;2.80;99.90;;;;;;5121683;27;20030;-66
2022/01/16 09:33:35;;;;;;;30.52;16.17;;;2.80;99.90;;;;;;5137423;27;20019;-66
2022/01/16 09:36:02;;;;;;;27.73;15.50;;;2.80;99.90;;;;;;5137190;27;20076;-69
2022/01/16 09:38:28;;;;;;;30.08;16.45;;;2.90;99.90;;;;;;5119019;27;20059;-67
2022/01/16 09:40:55;;;;;;;29.90;15.05;;;2.90;99.90;;;;;;5133755;27;20050;-64
2022/01/16 09:43:21;;;;;;;29.67;14.35;;;6.00;99.90;;;;;;5120169;27;20028;-64
2022/01/16 09:45:48;;;;;;;27.83;17.88;;;6.70;99.90;;;;;;5123761;27;20027;-71
2022/01/16 09:48:16;;;;;;;28.25;16.92;;;7.70;99.90;;;;;;5122211;27;20032;-67
2022/01/16 09:50:42;;;;;;;29.02;16.27;;;5.50;99.90;;;;;;5133044;27;20015;-67
2022/01/16 09:53:08;;;;;;;35.28;17.05;;;4.50;99.90;;;;;;5123199;27;20047;-72
2022/01/16 09:55:33;;;;;;;27.70;15.02;;;4.00;99.90;;;;;;5118916;28;20118;-66
2022/01/16 09:58:00;;;;;;;29.45;15.63;;;3.80;99.90;;;;;;5127242;27;20041;-68
2022/01/16 10:00:27;;;;;;;32.42;16.88;;;3.50;99.90;;;;;;5117908;27;20024;-66
2022/01/16 10:02:53;;;;;;;29.23;16.25;;;3.30;99.90;;;;;;5121974;27;20031;-66
2022/01/16 10:05:27;;;;;;;33.13;18.83;;;3.30;99.90;;;;;;5119859;27;20028;-65
2022/01/16 10:07:54;;;;;;;38.42;17.33;;;3.30;99.90;;;;;;5116940;27;20201;-63
2022/01/16 10:10:23;;;;;;;28.52;16.42;;;6.40;99.90;;;;;;5119388;27;20028;-63
2022/01/16 10:12:51;;;;;;;30.67;16.63;;;6.40;99.90;;;;;;5115752;27;20120;-70
2022/01/16 10:15:17;;;;;;;29.38;15.95;;;7.00;99.90;;;;;;5129692;27;20030;-61
2022/01/16 10:17:55;;;;;;;26.85;15.02;;;6.40;99.90;;;;;;5135792;27;20023;-67
2022/01/16 10:20:22;;;;;;;28.67;15.23;;;6.30;99.90;;;;;;5136939;27;20023;-63
2022/01/16 10:22:49;;;;;;;29.23;15.60;;;6.90;99.90;;;;;;5127596;27;20654;-62
2022/01/16 10:25:33;;;;;;;27.88;15.23;;;7.10;99.90;;;;;;5133431;27;20039;-61
2022/01/16 10:28:02;;;;;;;30.80;15.10;;;6.90;99.90;;;;;;5127006;27;20026;-67
2022/01/16 10:30:39;;;;;;;32.60;16.23;;;6.40;99.90;;;;;;5114524;28;20056;-63
2022/01/16 10:33:13;;;;;;;26.75;15.63;;;6.60;99.90;;;;;;5114757;27;20045;-62
2022/01/16 10:35:40;;;;;;;26.58;14.88;;;6.90;99.90;;;;;;5118863;27;20030;-63
2022/01/16 10:38:10;;;;;;;30.48;16.05;;;7.40;99.90;;;;;;5133397;27;20057;-63
2022/01/16 10:40:39;;;;;;;27.30;15.75;;;6.90;99.90;;;;;;5133375;27;20031;-63
2022/01/16 10:43:13;;;;;;;28.23;15.10;;;6.60;99.90;;;;;;5131510;27;20035;-66
2022/01/16 10:45:39;;;;;;;31.67;15.35;;;6.10;99.90;;;;;;5128164;27;20027;-62
2022/01/16 10:48:06;;;;;;;26.65;14.95;;;6.60;99.90;;;;;;5127171;27;20023;-62
2022/01/16 10:50:38;;;;;;;29.08;16.02;;;6.00;99.90;;;;;;5129981;27;20059;-63
2022/01/16 10:53:05;;;;;;;;;;;5.80;99.90;;;;;;5113012;27;20385;-63
2022/01/16 10:55:51;;;;;;;28.42;15.35;;;5.90;99.90;;;;;;5119753;27;20341;-63
2022/01/16 10:58:18;;;;;;;27.38;15.27;;;6.80;99.90;;;;;;5127523;27;20019;-63
2022/01/16 11:01:04;;;;;;;30.15;14.75;;;6.20;99.90;;;;;;5134652;27;20068;-60
2022/01/16 11:03:47;;;;;;;28.17;15.80;;;6.10;99.90;;;;;;5133781;27;20465;-66
2022/01/16 11:06:14;;;;;;;27.52;15.93;;;6.40;99.90;;;;;;5129623;27;20023;-63
2022/01/16 11:08:48;;;;;;;25.65;14.65;;;6.40;99.90;;;;;;5134128;27;20042;-64
2022/01/16 11:11:14;;;;;;;25.42;13.32;;;6.50;99.90;;;;;;5133088;27;20026;-61
2022/01/16 11:13:40;;;;;;;26.27;13.75;;;6.50;99.90;;;;;;5120036;27;20034;-62
2022/01/16 11:16:07;;;;;;;25.38;14.88;;;6.20;99.90;;;;;;5133665;27;20020;-62
2022/01/16 11:18:40;;;;;;;26.30;14.40;;;6.00;99.90;;;;;;5116672;27;20023;-60
2022/01/16 11:23:49;;;;;;;29.38;14.98;;;6.20;99.90;;;;;;5128323;27;20105;-66
2022/01/16 11:26:20;;;;;;;32.08;16.60;;;4.80;99.90;;;;;;5114159;28;20069;-68
2022/01/16 11:28:46;;;;;;;31.15;14.80;;;4.20;99.90;;;;;;5128666;27;20034;-65
2022/01/16 11:31:14;;;;;;;27.20;15.85;;;3.80;99.90;;;;;;5133195;27;20019;-65
2022/01/16 11:33:40;;;;;;;28.40;14.45;;;3.40;99.90;;;;;;5126404;27;20419;-67
2022/01/16 11:36:27;;;;;;;28.98;15.15;;;3.30;99.90;;;;;;5122205;27;20384;-69
2022/01/16 11:38:57;;;;;;;28.05;15.55;;;3.20;99.90;;;;;;5134042;27;20027;-66
2022/01/16 11:41:32;;;;;;;26.63;14.98;;;3.30;99.90;;;;;;5119988;27;20071;-67
2022/01/16 11:43:58;;;;;;;30.00;16.33;;;3.30;99.90;;;;;;5133551;27;20035;-67
2022/01/16 11:46:28;;;;;;;34.70;16.02;;;3.30;99.90;;;;;;5134211;27;20555;-66
2022/01/16 11:49:01;;;;;;;28.50;16.17;;;3.40;99.90;;;;;;5125849;27;20027;-67
2022/01/16 11:51:35;;;;;;;30.05;17.00;;;3.40;99.90;;;;;;5125954;27;20488;-66
2022/01/16 11:54:01;;;;;;;31.25;16.33;;;3.40;99.90;;;;;;5125934;27;20042;-67
2022/01/16 11:56:39;;;;;;;31.58;14.68;;;3.50;99.90;;;;;;5127907;27;20401;-67
2022/01/16 11:59:33;;;;;;;30.20;14.75;;;3.50;99.90;;;;;;5127563;27;20129;-67
2022/01/16 12:02:06;;;;;;;27.73;14.43;;;3.40;99.90;;;;;;5111989;28;20023;-67
2022/01/16 12:04:32;;;;;;;33.45;15.80;;;3.50;99.90;;;;;;5126675;27;20528;-66
2022/01/16 12:07:12;;;;;;;31.55;15.90;;;3.50;99.90;;;;;;5121265;27;20027;-67
2022/01/16 12:12:12;;;;;;;30.85;15.60;;;3.60;99.90;;;;;;5126534;27;20468;-66
2022/01/16 12:14:59;;;;;;;36.80;17.30;;;3.50;99.90;;;;;;5119467;27;20038;-67
2022/01/16 12:17:55;;;;;;;31.58;15.75;;;3.40;99.90;;;;;;5120965;27;20077;-67
2022/01/16 12:20:26;;;;;;;31.02;16.60;;;3.30;99.90;;;;;;5095198;27;20040;-66
2022/01/16 12:23:01;;;;;;;28.05;14.65;;;3.40;99.90;;;;;;5113816;27;20075;-67
2022/01/16 12:25:32;;;;;;;35.75;17.17;;;3.30;99.90;;;;;;5126855;27;20065;-67
2022/01/16 12:28:02;;;;;;;32.92;14.93;;;3.40;99.90;;;;;;5114537;27;20035;-67
2022/01/16 12:30:50;;;;;;;31.38;15.48;;;3.30;99.90;;;;;;5123289;27;20027;-66
2022/01/16 12:33:15;;;;;;;33.42;17.05;;;3.40;99.90;;;;;;5126748;27;20433;-68
2022/01/16 12:35:41;;;;;;;34.97;17.02;;;3.50;99.90;;;;;;5125412;27;20524;-67
2022/01/16 12:38:19;;;;;;;30.15;15.13;;;3.60;99.90;;;;;;5119375;27;20118;-65
2022/01/16 12:40:51;;;;;;;32.63;15.80;;;3.50;99.90;;;;;;5120841;27;20076;-66
2022/01/16 12:45:53;;;;;;;33.50;16.45;;;3.50;99.90;;;;;;5128833;28;20031;-67
2022/01/16 12:48:20;;;;;;;27.63;15.43;;;3.50;99.90;;;;;;5120695;27;20027;-66
2022/01/16 12:50:46;;;;;;;30.70;16.95;;;3.50;99.90;;;;;;5120374;27;20027;-69
2022/01/16 12:53:11;;;;;;;31.20;15.77;;;3.50;99.90;;;;;;5116106;27;20428;-66
2022/01/16 12:55:37;;;;;;;26.75;14.32;;;3.50;99.90;;;;;;5106751;28;20048;-67
2022/01/16 12:58:19;;;;;;;34.42;14.60;;;3.50;99.90;;;;;;5120520;28;20166;-71
2022/01/16 13:01:02;;;;;;;32.70;17.08;;;3.60;99.90;;;;;;5122741;28;20025;-68
2022/01/16 13:03:29;;;;;;;35.55;17.52;;;3.80;99.90;;;;;;5116616;27;20043;-69
2022/01/16 13:06:14;;;;;;;32.20;16.30;;;3.90;99.90;;;;;;5105045;28;20030;-69
2022/01/16 13:08:58;;;;;;;28.55;15.40;;;4.10;99.90;;;;;;5127617;28;20371;-69
2022/01/16 13:11:26;;;;;;;28.77;15.43;;;4.20;99.90;;;;;;5128668;28;20019;-67
2022/01/16 13:13:52;;;;;;;28.00;15.02;;;4.00;99.90;;;;;;5115834;28;20059;-70
2022/01/16 13:16:31;;;;;;;29.90;17.45;;;4.00;99.90;;;;;;5118940;28;20440;-69
2022/01/16 13:19:05;;;;;;;29.27;16.48;;;4.10;99.90;;;;;;5112282;28;20027;-68
2022/01/16 13:21:43;;;;;;;30.98;14.88;;;4.00;99.90;;;;;;5114688;28;20029;-66
2022/01/16 13:24:22;;;;;;;28.15;14.65;;;4.00;99.90;;;;;;5093730;28;20036;-68
2022/01/16 13:26:47;;;;;;;27.27;14.15;;;4.10;99.90;;;;;;5111354;28;20042;-68
2022/01/16 13:29:15;;;;;;;27.13;14.65;;;3.90;99.90;;;;;;5096400;28;20393;-67
2022/01/16 13:31:41;;;;;;;27.50;14.73;;;4.00;99.90;;;;;;5091946;28;20073;-67
2022/01/16 13:34:09;;;;;;;25.83;13.57;;;4.00;99.90;;;;;;5110151;28;20032;-66